createdAt,value
2023-03-21T00:01:03.497Z,1013.89
2023-03-21T00:16:13.886Z,1013.84
2023-03-21T00:31:09.938Z,1013.84
2023-03-21T00:46:09.952Z,1013.68
2023-03-21T01:01:10.736Z,1013.64
2023-03-21T01:16:11.138Z,1013.54
2023-03-21T01:31:11.745Z,1013.59
2023-03-21T01:46:12.758Z,1013.57
2023-03-21T02:01:13.035Z,1013.55
2023-03-21T02:16:13.507Z,1013.44
2023-03-21T02:31:14.549Z,1013.43
2023-03-21T02:46:15.988Z,1013.34
2023-03-21T03:01:17.346Z,1013.44
2023-03-21T03:16:17.997Z,1013.40
2023-03-21T03:31:20.785Z,1013.45
2023-03-21T03:46:21.401Z,1013.47
2023-03-21T04:01:21.663Z,1013.48
2023-03-21T04:16:22.256Z,1013.50
2023-03-21T04:31:26.001Z,1013.42
2023-03-21T04:46:26.636Z,1013.39
2023-03-21T05:01:27.519Z,1013.42
2023-03-21T05:16:28.522Z,1013.38
2023-03-21T05:31:29.320Z,1013.29
2023-03-21T05:46:29.585Z,1013.29
2023-03-21T06:01:30.146Z,1013.33
2023-03-21T06:16:30.406Z,1013.42
2023-03-21T06:31:30.679Z,1013.49
2023-03-21T06:46:30.819Z,1013.50
2023-03-21T07:01:31.151Z,1013.59
2023-03-21T07:16:31.177Z,1013.66
2023-03-21T07:31:31.877Z,1013.65
2023-03-21T07:46:32.537Z,1013.63
2023-03-21T08:01:32.749Z,1013.62
2023-03-21T08:16:32.946Z,1013.69
2023-03-21T08:31:33.207Z,1013.73
2023-03-21T08:46:33.461Z,1013.71
2023-03-21T09:01:33.838Z,1013.67
2023-03-21T09:16:34.057Z,1013.71
2023-03-21T09:31:34.626Z,1013.63
2023-03-21T09:46:36.045Z,1013.62
2023-03-21T10:01:36.986Z,1013.51
2023-03-21T10:16:37.516Z,1013.45
2023-03-21T10:31:37.525Z,1013.34
2023-03-21T10:46:38.820Z,1013.25
2023-03-21T11:01:40.013Z,1013.20
2023-03-21T11:16:41.030Z,1013.06
2023-03-21T11:31:41.662Z,1012.85
2023-03-21T11:46:42.441Z,1012.79
2023-03-21T12:01:43.293Z,1012.68
2023-03-21T12:16:44.334Z,1012.52
2023-03-21T12:31:46.057Z,1012.30
2023-03-21T12:46:47.136Z,1012.18
2023-03-21T13:01:47.807Z,1012.10
2023-03-21T13:16:48.503Z,1011.86
2023-03-21T13:31:52.448Z,1011.67
2023-03-21T13:46:54.516Z,1011.63
2023-03-21T14:01:55.336Z,1011.45
2023-03-21T14:16:55.576Z,1011.33
2023-03-21T14:31:56.406Z,1011.30
2023-03-21T14:46:56.248Z,1011.13
2023-03-21T15:01:56.837Z,1010.99
2023-03-21T15:16:57.421Z,1010.81
2023-03-21T15:31:57.448Z,1010.77
2023-03-21T15:46:58.226Z,1010.66
2023-03-21T16:01:58.721Z,1010.49
2023-03-21T16:16:59.388Z,1010.35
2023-03-21T16:32:00.877Z,1010.32
2023-03-21T16:47:02.655Z,1010.33
2023-03-21T17:02:03.391Z,1010.40
2023-03-21T17:17:03.677Z,1010.25
2023-03-21T17:32:03.804Z,1010.17
2023-03-21T17:47:04.692Z,1010.20
2023-03-21T18:02:04.867Z,1010.19
2023-03-21T18:17:04.870Z,1010.12
2023-03-21T18:32:07.352Z,1010.17
2023-03-21T18:47:08.929Z,1010.17
2023-03-21T19:02:10.479Z,1010.24
2023-03-21T19:18:21.853Z,1010.22
2023-03-21T19:32:17.112Z,1010.15
2023-03-21T19:47:19.609Z,1010.13
2023-03-21T20:02:35.028Z,1010.06
2023-03-21T20:17:26.850Z,1010.11
2023-03-21T20:32:27.311Z,1010.10
2023-03-21T20:47:26.995Z,1009.97
2023-03-21T21:02:27.679Z,1009.71
2023-03-21T21:17:54.493Z,1009.60
2023-03-21T21:32:33.791Z,1009.50
2023-03-21T21:47:33.897Z,1009.62
2023-03-21T22:02:34.458Z,1009.64
2023-03-21T22:17:34.510Z,1009.58
2023-03-21T22:32:35.085Z,1009.40
2023-03-21T22:47:35.327Z,1009.44
2023-03-21T23:02:35.682Z,1009.42
2023-03-21T23:17:36.268Z,1009.34
2023-03-21T23:32:37.364Z,1009.04
2023-03-21T23:47:38.593Z,1009.07
